createdAt,value
2018-04-29T00:00:30.887Z,17.90
2018-04-29T00:02:57.237Z,17.80
2018-04-29T00:05:23.586Z,17.80
2018-04-29T00:07:49.945Z,17.70
2018-04-29T00:10:16.320Z,17.70
2018-04-29T00:12:42.710Z,17.60
2018-04-29T00:15:09.970Z,17.50
2018-04-29T00:17:36.403Z,17.50
2018-04-29T00:20:02.773Z,17.50
2018-04-29T00:25:10.229Z,17.40
2018-04-29T00:27:37.321Z,17.30
2018-04-29T00:30:03.650Z,17.30
2018-04-29T00:32:30.789Z,17.20
2018-04-29T00:34:59.937Z,17.20
2018-04-29T00:37:26.303Z,17.20
2018-04-29T00:39:52.725Z,17.10
2018-04-29T00:42:19.842Z,17.00
2018-04-29T00:44:46.222Z,16.90
2018-04-29T00:47:12.561Z,17.00
2018-04-29T00:49:38.896Z,16.90
2018-04-29T00:52:06.228Z,16.70
2018-04-29T00:54:32.586Z,16.80
2018-04-29T00:56:58.960Z,16.80
2018-04-29T00:59:26.068Z,16.70
2018-04-29T01:01:52.418Z,16.70
2018-04-29T01:04:18.861Z,16.60
2018-04-29T01:06:46.700Z,16.60
2018-04-29T01:09:14.036Z,16.50
2018-04-29T01:11:40.401Z,16.50
2018-04-29T01:14:06.769Z,16.60
2018-04-29T01:16:33.103Z,16.80
2018-04-29T01:18:59.438Z,16.70
2018-04-29T01:21:26.513Z,16.60
2018-04-29T01:23:52.885Z,16.40
2018-04-29T01:26:19.202Z,16.40
2018-04-29T01:28:45.553Z,16.30
2018-04-29T01:31:12.014Z,16.10
2018-04-29T01:33:38.338Z,16.20
2018-04-29T01:36:05.570Z,16.00
2018-04-29T01:38:31.914Z,16.00
2018-04-29T01:40:58.270Z,16.00
2018-04-29T01:43:24.642Z,16.00
2018-04-29T01:45:51.144Z,15.90
2018-04-29T01:48:17.548Z,15.90
2018-04-29T01:50:44.869Z,15.80
2018-04-29T01:53:11.218Z,15.80
2018-04-29T01:55:38.485Z,15.70
2018-04-29T01:58:05.602Z,15.60
2018-04-29T02:00:31.978Z,15.60
2018-04-29T02:02:58.301Z,15.40
2018-04-29T02:05:25.530Z,15.40
2018-04-29T02:07:51.904Z,15.40
2018-04-29T02:10:18.270Z,15.30
2018-04-29T02:12:44.649Z,15.30
2018-04-29T02:15:11.616Z,15.20
2018-04-29T02:17:37.949Z,15.20
2018-04-29T02:20:04.342Z,15.10
2018-04-29T02:22:31.393Z,15.10
2018-04-29T02:24:58.734Z,15.00
2018-04-29T02:27:25.112Z,15.00
2018-04-29T02:29:51.492Z,14.90
2018-04-29T02:32:17.859Z,14.70
2018-04-29T02:34:44.278Z,14.80
2018-04-29T02:37:10.611Z,14.70
2018-04-29T02:39:37.698Z,14.70
2018-04-29T02:42:04.113Z,14.60
2018-04-29T02:44:30.492Z,14.60
2018-04-29T02:46:56.894Z,14.60
2018-04-29T02:49:23.247Z,14.60
2018-04-29T02:51:49.590Z,14.60
2018-04-29T02:54:16.010Z,14.50
2018-04-29T02:56:42.346Z,14.50
2018-04-29T02:59:08.765Z,14.50
2018-04-29T03:01:35.123Z,14.50
2018-04-29T03:04:01.521Z,14.70
2018-04-29T03:06:27.885Z,14.80
2018-04-29T03:08:54.221Z,14.70
2018-04-29T03:11:20.539Z,14.50
2018-04-29T03:13:46.969Z,14.60
2018-04-29T03:16:13.428Z,14.40
2018-04-29T03:18:39.796Z,14.30
2018-04-29T03:21:06.182Z,14.20
2018-04-29T03:23:32.562Z,14.10
2018-04-29T03:25:59.070Z,14.00
2018-04-29T03:28:26.155Z,14.00
2018-04-29T03:30:52.521Z,14.00
2018-04-29T03:33:18.882Z,14.10
2018-04-29T03:35:46.212Z,14.00
2018-04-29T03:38:12.540Z,14.00
2018-04-29T03:40:38.894Z,14.10
2018-04-29T03:43:05.230Z,14.20
2018-04-29T03:45:31.674Z,14.20
2018-04-29T03:47:58.098Z,14.30
2018-04-29T03:50:24.430Z,14.30
2018-04-29T03:52:50.852Z,14.30
2018-04-29T03:55:18.890Z,14.20
2018-04-29T03:57:57.444Z,14.20
2018-04-29T04:00:40.637Z,14.20
2018-04-29T04:03:19.226Z,14.10
2018-04-29T04:05:45.749Z,14.10
2018-04-29T04:08:12.094Z,14.00
2018-04-29T04:10:38.466Z,14.00
2018-04-29T04:13:05.535Z,14.10
2018-04-29T04:15:32.785Z,14.10
2018-04-29T04:17:59.159Z,14.00
2018-04-29T04:20:25.489Z,14.00
2018-04-29T04:22:51.851Z,14.00
2018-04-29T04:25:18.362Z,14.00
2018-04-29T04:27:44.810Z,14.00
2018-04-29T04:30:11.186Z,14.00
2018-04-29T04:32:37.567Z,14.00
2018-04-29T04:35:04.165Z,14.00
2018-04-29T04:37:30.540Z,14.10
2018-04-29T04:39:56.902Z,14.10
2018-04-29T04:42:24.018Z,14.10
2018-04-29T04:44:50.605Z,13.90
2018-04-29T04:47:16.955Z,14.20
2018-04-29T04:49:43.299Z,14.20
2018-04-29T04:52:09.698Z,14.20
2018-04-29T04:54:36.178Z,14.30
2018-04-29T04:57:02.567Z,14.40
2018-04-29T04:59:28.974Z,14.40
2018-04-29T05:01:56.078Z,14.50
2018-04-29T05:04:22.485Z,14.50
2018-04-29T05:06:49.014Z,14.60
2018-04-29T05:09:15.419Z,14.80
2018-04-29T05:11:42.503Z,14.80
2018-04-29T05:14:08.888Z,14.70
2018-04-29T05:16:35.250Z,14.80
2018-04-29T05:19:02.354Z,15.00
2018-04-29T05:21:28.742Z,15.00
2018-04-29T05:23:55.102Z,15.20
2018-04-29T05:26:21.514Z,15.50
2018-04-29T05:28:47.943Z,15.70
2018-04-29T05:31:14.309Z,16.20
2018-04-29T05:33:40.649Z,16.30
2018-04-29T05:36:07.282Z,16.40
2018-04-29T05:38:33.629Z,16.50
2018-04-29T05:41:00.096Z,16.60
2018-04-29T05:43:26.427Z,16.90
2018-04-29T05:45:53.703Z,16.70
2018-04-29T05:48:20.069Z,16.60
2018-04-29T05:50:47.174Z,16.40
2018-04-29T05:53:13.542Z,16.30
2018-04-29T05:55:40.139Z,16.30
2018-04-29T05:58:06.551Z,16.40
2018-04-29T06:00:32.912Z,16.50
2018-04-29T06:02:59.253Z,16.50
2018-04-29T06:05:25.656Z,16.50
2018-04-29T06:07:52.731Z,16.70
2018-04-29T06:10:19.912Z,16.60
2018-04-29T06:12:46.459Z,16.60
2018-04-29T06:15:13.024Z,16.70
2018-04-29T06:17:39.341Z,17.00
2018-04-29T06:20:06.405Z,17.70
2018-04-29T06:22:32.749Z,17.70
2018-04-29T06:25:04.501Z,18.10
2018-04-29T06:27:30.849Z,18.40
2018-04-29T06:29:57.202Z,18.80
2018-04-29T06:32:23.546Z,19.30
2018-04-29T06:34:50.374Z,19.90
2018-04-29T06:37:16.740Z,20.70
2018-04-29T06:39:43.106Z,21.20
2018-04-29T06:42:10.231Z,21.80
2018-04-29T06:44:37.583Z,21.90
2018-04-29T06:47:04.661Z,22.40
2018-04-29T06:49:31.042Z,22.40
2018-04-29T06:51:57.393Z,22.50
2018-04-29T06:54:24.690Z,22.90
2018-04-29T06:56:51.041Z,22.90
2018-04-29T06:59:18.137Z,23.50
2018-04-29T07:01:44.485Z,23.50
2018-04-29T07:04:10.976Z,23.80
2018-04-29T07:06:38.083Z,23.90
2018-04-29T07:09:04.517Z,23.80
2018-04-29T07:11:30.873Z,23.90
2018-04-29T07:13:57.250Z,24.40
2018-04-29T07:16:23.590Z,24.60
2018-04-29T07:18:49.931Z,24.50
2018-04-29T07:21:16.450Z,24.80
2018-04-29T07:23:42.886Z,25.00
2018-04-29T07:26:09.225Z,24.80
2018-04-29T07:28:35.602Z,24.80
2018-04-29T07:31:01.965Z,25.00
2018-04-29T07:33:29.052Z,25.30
2018-04-29T07:35:56.182Z,25.20
2018-04-29T07:38:22.584Z,25.20
2018-04-29T07:40:49.705Z,25.30
2018-04-29T07:43:16.138Z,25.10
2018-04-29T07:45:42.847Z,24.90
2018-04-29T07:48:09.253Z,24.60
2018-04-29T07:50:35.671Z,24.90
2018-04-29T07:53:02.789Z,24.90
2018-04-29T07:55:29.342Z,25.00
2018-04-29T07:57:57.194Z,25.90
2018-04-29T08:00:23.551Z,25.80
2018-04-29T08:02:50.709Z,26.10
2018-04-29T08:05:17.849Z,26.40
2018-04-29T08:07:44.950Z,27.10
2018-04-29T08:10:11.294Z,27.10
2018-04-29T08:12:37.658Z,26.80
2018-04-29T08:15:06.746Z,27.50
2018-04-29T08:17:33.283Z,27.50
2018-04-29T08:19:59.689Z,27.50
2018-04-29T08:22:26.082Z,27.60
2018-04-29T08:24:52.638Z,27.80
2018-04-29T08:27:19.111Z,28.00
2018-04-29T08:29:45.509Z,28.10
2018-04-29T08:32:11.869Z,28.00
2018-04-29T08:34:38.445Z,28.20
2018-04-29T08:37:04.854Z,28.50
2018-04-29T08:39:31.217Z,28.80
2018-04-29T08:41:58.283Z,28.90
2018-04-29T08:44:25.661Z,28.70
2018-04-29T08:46:52.787Z,28.80
2018-04-29T08:49:19.203Z,28.70
2018-04-29T08:51:45.554Z,29.10
2018-04-29T08:54:11.962Z,30.10
2018-04-29T08:56:38.315Z,30.30
2018-04-29T08:59:04.697Z,29.80
2018-04-29T09:01:31.102Z,30.10
2018-04-29T09:03:58.928Z,29.90
2018-04-29T09:06:26.038Z,30.20
2018-04-29T09:08:52.446Z,30.10
2018-04-29T09:11:19.134Z,30.10
2018-04-29T09:13:45.585Z,30.30
2018-04-29T09:16:11.957Z,30.10
2018-04-29T09:18:38.304Z,30.10
2018-04-29T09:21:04.666Z,30.30
2018-04-29T09:23:31.773Z,30.80
2018-04-29T09:25:58.113Z,30.80
2018-04-29T09:28:24.552Z,31.20
2018-04-29T09:30:50.950Z,31.40
2018-04-29T09:33:18.108Z,31.60
2018-04-29T09:35:44.469Z,31.50
2018-04-29T09:38:10.802Z,31.50
2018-04-29T09:40:37.922Z,31.50
2018-04-29T09:43:04.302Z,31.60
2018-04-29T09:45:30.692Z,31.70
2018-04-29T09:47:57.065Z,31.90
2018-04-29T09:50:23.448Z,32.00
2018-04-29T09:52:50.585Z,32.50
2018-04-29T09:55:16.929Z,32.50
2018-04-29T09:57:43.340Z,32.70
2018-04-29T10:00:09.742Z,32.90
2018-04-29T10:02:36.245Z,33.20
2018-04-29T10:05:02.690Z,33.60
2018-04-29T10:07:29.017Z,33.90
2018-04-29T10:09:55.389Z,34.00
2018-04-29T10:12:21.731Z,34.00
2018-04-29T10:14:48.381Z,34.20
2018-04-29T10:17:14.731Z,34.50
2018-04-29T10:19:41.101Z,34.70
2018-04-29T10:22:08.182Z,35.50
2018-04-29T10:24:34.689Z,35.50
2018-04-29T10:27:01.094Z,35.60
2018-04-29T10:29:27.429Z,35.20
2018-04-29T10:31:54.509Z,35.00
2018-04-29T10:34:21.778Z,35.00
2018-04-29T10:36:48.163Z,35.00
2018-04-29T10:39:14.536Z,35.40
2018-04-29T10:41:42.288Z,35.40
2018-04-29T10:44:09.053Z,35.60
2018-04-29T10:46:35.409Z,35.80
2018-04-29T10:49:01.750Z,36.00
2018-04-29T10:51:28.113Z,35.60
2018-04-29T10:53:55.254Z,35.70
2018-04-29T10:56:22.398Z,35.60
2018-04-29T10:58:49.511Z,35.30
2018-04-29T11:01:15.896Z,35.30
2018-04-29T11:03:42.256Z,35.10
2018-04-29T11:06:08.610Z,35.10
2018-04-29T11:08:34.941Z,35.10
2018-04-29T11:11:01.305Z,35.20
2018-04-29T11:13:28.506Z,34.40
2018-04-29T11:15:54.841Z,34.30
2018-04-29T11:18:21.201Z,34.40
2018-04-29T11:20:47.574Z,35.00
2018-04-29T11:23:14.710Z,35.20
2018-04-29T11:25:41.809Z,35.50
2018-04-29T11:28:08.143Z,35.50
2018-04-29T11:30:34.501Z,35.60
2018-04-29T11:33:00.842Z,35.90
2018-04-29T11:35:27.954Z,35.90
2018-04-29T11:37:54.388Z,35.90
2018-04-29T11:40:20.893Z,35.80
2018-04-29T11:42:47.261Z,35.70
2018-04-29T11:45:13.609Z,35.50
2018-04-29T11:47:39.933Z,35.30
2018-04-29T11:50:06.290Z,35.10
2018-04-29T11:52:33.365Z,34.40
2018-04-29T11:55:00.165Z,34.40
2018-04-29T11:57:27.293Z,33.70
2018-04-29T11:59:53.674Z,33.60
2018-04-29T12:02:20.078Z,33.30
2018-04-29T12:04:47.251Z,32.70
2018-04-29T12:07:13.630Z,32.70
2018-04-29T12:09:39.965Z,32.60
2018-04-29T12:12:06.289Z,32.50
2018-04-29T12:14:32.758Z,32.30
2018-04-29T12:16:59.826Z,32.20
2018-04-29T12:19:26.922Z,32.10
2018-04-29T12:21:53.279Z,32.00
2018-04-29T12:24:20.626Z,31.90
2018-04-29T12:26:46.990Z,31.90
2018-04-29T12:29:13.354Z,31.80
2018-04-29T12:31:39.695Z,32.10
2018-04-29T12:34:06.299Z,32.00
2018-04-29T12:36:32.641Z,32.50
2018-04-29T12:38:58.999Z,32.60
2018-04-29T12:41:25.414Z,32.60
2018-04-29T12:43:51.910Z,32.50
2018-04-29T12:46:19.022Z,32.80
2018-04-29T12:48:45.353Z,32.80
2018-04-29T12:51:11.702Z,32.90
2018-04-29T12:53:41.394Z,33.30
2018-04-29T12:56:07.885Z,33.30
2018-04-29T12:58:34.234Z,33.40
2018-04-29T13:01:01.333Z,34.60
2018-04-29T13:03:37.227Z,35.00
2018-04-29T13:06:03.829Z,35.10
2018-04-29T13:08:30.922Z,34.70
2018-04-29T13:10:57.337Z,34.70
2018-04-29T13:13:23.657Z,34.80
2018-04-29T13:15:50.469Z,34.50
2018-04-29T13:18:16.841Z,34.20
2018-04-29T13:20:43.179Z,34.00
2018-04-29T13:23:10.285Z,34.80
2018-04-29T13:25:37.674Z,35.20
2018-04-29T13:28:04.011Z,35.20
2018-04-29T13:30:30.353Z,35.40
2018-04-29T13:32:56.674Z,35.30
2018-04-29T13:35:23.320Z,34.80
2018-04-29T13:37:50.535Z,34.00
2018-04-29T13:40:17.670Z,33.50
2018-04-29T13:42:44.784Z,33.20
2018-04-29T13:45:11.178Z,33.10
2018-04-29T13:47:37.538Z,32.80
2018-04-29T13:50:03.876Z,32.40
2018-04-29T13:52:30.289Z,32.40
2018-04-29T13:54:56.585Z,32.10
2018-04-29T13:57:23.653Z,31.70
2018-04-29T13:59:49.977Z,31.70
2018-04-29T14:02:17.204Z,31.30
2018-04-29T14:04:43.522Z,31.40
2018-04-29T14:07:09.931Z,31.40
2018-04-29T14:09:37.034Z,31.10
2018-04-29T14:12:03.374Z,31.10
2018-04-29T14:14:29.670Z,31.10
2018-04-29T14:16:55.999Z,30.90
2018-04-29T14:19:22.423Z,30.70
2018-04-29T14:21:48.757Z,30.50
2018-04-29T14:24:17.242Z,30.40
2018-04-29T14:26:43.613Z,30.10
2018-04-29T14:29:09.953Z,29.80
2018-04-29T14:31:36.396Z,29.90
2018-04-29T14:34:02.753Z,29.70
2018-04-29T14:36:29.102Z,29.50
2018-04-29T14:38:55.433Z,29.50
2018-04-29T14:41:22.522Z,29.50
2018-04-29T14:43:48.918Z,29.50
2018-04-29T14:46:15.262Z,29.50
2018-04-29T14:48:42.333Z,29.30
2018-04-29T14:51:08.679Z,29.30
2018-04-29T14:53:35.860Z,29.40
2018-04-29T14:56:03.761Z,29.50
2018-04-29T14:58:30.854Z,29.70
2018-04-29T15:00:57.242Z,29.70
2018-04-29T15:03:24.413Z,29.80
2018-04-29T15:05:51.281Z,29.90
2018-04-29T15:08:18.363Z,29.90
2018-04-29T15:10:44.709Z,29.90
2018-04-29T15:13:11.793Z,29.80
2018-04-29T15:15:39.102Z,30.10
2018-04-29T15:18:05.534Z,30.10
2018-04-29T15:20:31.877Z,30.20
2018-04-29T15:22:59.023Z,30.20
2018-04-29T15:25:26.243Z,30.10
2018-04-29T15:27:52.581Z,30.00
2018-04-29T15:30:18.968Z,29.80
2018-04-29T15:32:45.362Z,29.70
2018-04-29T15:35:12.653Z,29.90
2018-04-29T15:37:38.988Z,29.90
2018-04-29T15:40:06.093Z,29.90
2018-04-29T15:42:32.781Z,29.90
2018-04-29T15:44:59.402Z,29.60
2018-04-29T15:47:25.802Z,29.50
2018-04-29T15:49:52.574Z,29.70
2018-04-29T15:52:18.881Z,29.50
2018-04-29T15:54:46.153Z,29.30
2018-04-29T15:57:12.482Z,29.30
2018-04-29T15:59:39.115Z,29.10
2018-04-29T16:02:06.247Z,28.80
2018-04-29T16:04:33.509Z,28.80
2018-04-29T16:07:00.020Z,28.70
2018-04-29T16:09:26.354Z,28.70
2018-04-29T16:11:53.191Z,28.90
2018-04-29T16:14:19.518Z,28.80
2018-04-29T16:16:45.866Z,28.80
2018-04-29T16:19:12.225Z,28.80
2018-04-29T16:21:38.562Z,28.60
2018-04-29T16:24:04.922Z,28.50
2018-04-29T16:26:31.289Z,28.30
2018-04-29T16:28:57.680Z,28.30
2018-04-29T16:31:24.141Z,28.30
2018-04-29T16:33:50.546Z,28.30
2018-04-29T16:36:16.908Z,28.20
2018-04-29T16:38:43.225Z,28.20
2018-04-29T16:41:09.590Z,28.10
2018-04-29T16:43:36.709Z,28.10
2018-04-29T16:46:03.112Z,28.10
2018-04-29T16:48:29.625Z,28.10
2018-04-29T16:50:56.071Z,28.30
2018-04-29T16:53:23.217Z,28.10
2018-04-29T16:55:49.834Z,28.10
2018-04-29T16:58:16.929Z,27.60
2018-04-29T17:00:43.274Z,27.60
2018-04-29T17:03:09.629Z,27.50
2018-04-29T17:05:36.946Z,27.20
2018-04-29T17:08:03.281Z,27.20
2018-04-29T17:10:29.606Z,27.00
2018-04-29T17:12:56.010Z,27.00
2018-04-29T17:15:22.809Z,26.80
2018-04-29T17:17:49.155Z,26.60
2018-04-29T17:20:16.266Z,26.30
2018-04-29T17:22:42.605Z,26.20
2018-04-29T17:25:09.183Z,26.10
2018-04-29T17:27:35.549Z,25.90
2018-04-29T17:30:01.905Z,25.80
2018-04-29T17:32:28.234Z,25.80
2018-04-29T17:34:56.375Z,25.70
2018-04-29T17:37:22.733Z,25.80
2018-04-29T17:39:49.100Z,25.50
2018-04-29T17:42:16.212Z,25.40
2018-04-29T17:44:42.708Z,25.40
2018-04-29T17:47:09.079Z,25.30
2018-04-29T17:49:35.858Z,24.90
2018-04-29T17:52:02.939Z,24.80
2018-04-29T17:54:29.501Z,24.80
2018-04-29T17:56:55.954Z,24.70
2018-04-29T17:59:22.337Z,24.60
2018-04-29T18:01:48.714Z,24.60
2018-04-29T18:04:15.073Z,24.60
2018-04-29T18:06:42.150Z,24.50
2018-04-29T18:09:08.530Z,24.40
2018-04-29T18:11:34.874Z,24.40
2018-04-29T18:14:01.941Z,24.50
2018-04-29T18:16:29.091Z,24.60
2018-04-29T18:18:55.442Z,24.50
2018-04-29T18:21:21.817Z,24.40
2018-04-29T18:23:48.181Z,24.30
2018-04-29T18:26:15.302Z,24.30
2018-04-29T18:28:41.679Z,24.30
2018-04-29T18:31:08.030Z,24.10
2018-04-29T18:33:34.354Z,24.00
2018-04-29T18:36:00.702Z,23.90
2018-04-29T18:38:27.202Z,23.90
2018-04-29T18:40:53.707Z,23.80
2018-04-29T18:43:20.786Z,23.90
2018-04-29T18:45:47.177Z,23.90
2018-04-29T18:48:13.508Z,23.80
2018-04-29T18:50:40.006Z,23.70
2018-04-29T18:53:06.241Z,23.50
2018-04-29T18:55:33.476Z,23.30
2018-04-29T18:57:59.837Z,23.30
2018-04-29T19:00:26.989Z,23.20
2018-04-29T19:02:53.738Z,23.10
2018-04-29T19:05:20.239Z,23.10
2018-04-29T19:07:46.592Z,23.20
2018-04-29T19:10:12.974Z,23.20
2018-04-29T19:12:39.333Z,23.10
2018-04-29T19:15:05.765Z,23.20
2018-04-29T19:17:32.725Z,23.30
2018-04-29T19:19:59.862Z,23.40
2018-04-29T19:22:26.310Z,23.30
2018-04-29T19:24:52.838Z,23.20
2018-04-29T19:27:19.230Z,23.10
2018-04-29T19:29:46.319Z,23.20
2018-04-29T19:32:12.698Z,23.10
2018-04-29T19:34:40.037Z,22.80
2018-04-29T19:37:06.410Z,22.80
2018-04-29T19:39:32.752Z,22.70
2018-04-29T19:41:59.852Z,22.50
2018-04-29T19:44:26.406Z,22.50
2018-04-29T19:46:53.645Z,22.30
2018-04-29T19:49:20.091Z,22.30
2018-04-29T19:51:47.242Z,22.10
2018-04-29T19:57:11.991Z,22.00
2018-04-29T19:59:38.265Z,22.00
2018-04-29T20:02:04.702Z,21.90
2018-04-29T20:04:32.113Z,21.90
2018-04-29T20:06:58.492Z,21.90
2018-04-29T20:09:25.799Z,21.70
2018-04-29T20:11:52.655Z,21.60
2018-04-29T20:14:18.989Z,21.50
2018-04-29T20:16:45.385Z,21.50
2018-04-29T20:19:11.790Z,21.40
2018-04-29T20:21:38.929Z,21.30
2018-04-29T20:24:06.076Z,21.20
2018-04-29T20:26:33.232Z,21.10
2018-04-29T20:29:00.314Z,21.10
2018-04-29T20:31:26.670Z,21.00
2018-04-29T20:33:53.037Z,21.10
2018-04-29T20:36:19.456Z,21.00
2018-04-29T20:38:45.793Z,21.00
2018-04-29T20:41:12.919Z,20.90
2018-04-29T20:43:39.290Z,20.90
2018-04-29T20:46:06.367Z,20.90
2018-04-29T20:48:32.758Z,20.80
2018-04-29T20:50:59.134Z,20.80
2018-04-29T20:53:25.586Z,20.80
2018-04-29T20:55:51.989Z,20.80
2018-04-29T20:58:18.334Z,20.80
2018-04-29T21:00:44.728Z,20.90
2018-04-29T21:03:11.871Z,20.80
2018-04-29T21:05:38.205Z,20.70
2018-04-29T21:08:05.352Z,20.70
2018-04-29T21:10:31.706Z,20.70
2018-04-29T21:12:58.138Z,20.50
2018-04-29T21:15:24.782Z,20.80
2018-04-29T21:17:51.161Z,20.80
2018-04-29T21:20:17.521Z,20.70
2018-04-29T21:22:44.663Z,20.60
2018-04-29T21:25:11.171Z,20.60
2018-04-29T21:27:37.602Z,20.60
2018-04-29T21:30:04.231Z,20.70
2018-04-29T21:32:30.588Z,20.70
2018-04-29T21:34:57.382Z,20.60
2018-04-29T21:37:23.801Z,20.60
2018-04-29T21:39:50.397Z,20.60
2018-04-29T21:42:16.809Z,20.50
2018-04-29T21:44:43.662Z,20.40
2018-04-29T21:47:10.135Z,20.30
2018-04-29T21:49:37.245Z,20.20
2018-04-29T21:52:03.638Z,20.20
2018-04-29T21:54:30.130Z,20.30
2018-04-29T21:56:56.652Z,20.20
2018-04-29T21:59:23.010Z,20.10
2018-04-29T22:01:50.141Z,20.10
2018-04-29T22:04:21.874Z,20.10
2018-04-29T22:06:48.229Z,20.10
2018-04-29T22:09:15.239Z,20.00
2018-04-29T22:11:41.599Z,19.90
2018-04-29T22:14:08.350Z,19.90
2018-04-29T22:16:34.792Z,19.80
2018-04-29T22:19:01.867Z,19.90
2018-04-29T22:21:28.602Z,19.90
2018-04-29T22:23:55.020Z,19.80
2018-04-29T22:26:21.666Z,19.80
2018-04-29T22:28:48.794Z,19.60
2018-04-29T22:31:15.131Z,19.60
2018-04-29T22:33:41.503Z,19.60
2018-04-29T22:36:07.898Z,19.60
2018-04-29T22:38:35.026Z,19.50
2018-04-29T22:41:01.370Z,19.50
2018-04-29T22:43:27.966Z,19.30
2018-04-29T22:45:55.278Z,19.40
2018-04-29T22:48:22.729Z,19.40
2018-04-29T22:53:33.525Z,19.40
2018-04-29T22:56:01.352Z,19.30
2018-04-29T22:58:28.718Z,19.30
2018-04-29T23:00:55.322Z,19.30
2018-04-29T23:03:21.726Z,19.20
2018-04-29T23:05:48.273Z,19.20
2018-04-29T23:08:14.625Z,19.20
2018-04-29T23:10:40.994Z,19.20
2018-04-29T23:13:07.838Z,19.20
2018-04-29T23:15:35.375Z,19.10
2018-04-29T23:18:01.813Z,19.10
2018-04-29T23:20:28.285Z,19.10
2018-04-29T23:22:55.393Z,19.10
2018-04-29T23:25:22.167Z,19.10
2018-04-29T23:27:49.277Z,19.20
2018-04-29T23:30:15.662Z,19.20
2018-04-29T23:32:42.016Z,19.10
2018-04-29T23:35:08.526Z,19.20
2018-04-29T23:37:34.853Z,19.20
2018-04-29T23:40:01.189Z,19.30
2018-04-29T23:42:27.589Z,19.70
2018-04-29T23:44:54.018Z,19.90
2018-04-29T23:47:21.106Z,20.50
2018-04-29T23:49:47.477Z,20.40
2018-04-29T23:52:13.852Z,20.70
2018-04-29T23:54:41.104Z,21.00
2018-04-29T23:57:08.193Z,21.00
2018-04-29T23:59:34.592Z,21.00
